Time;durP1;ratioP1;P1;durP2;ratioP2;P2;SDS_P1;SDS_P2;PMS_P1;PMS_P2;Temp;Humidity;BMP_temperature;BMP_pressure;BME280_temperature;BME280_humidity;BME280_pressure;Samples;Min_cycle;Max_cycle;Signal;HPM_P1;HPM_P2
2021/07/10 00:02:09;;;;;;;4.95;3.30;;;;;;;;;;5074330;28;20135;-68
2021/07/10 00:04:36;;;;;;;4.72;3.40;;;;;;;;;;5073631;28;20504;-68
2021/07/10 00:07:05;;;;;;;5.50;4.00;;;;;;;;;;5073967;28;20409;-68
2021/07/10 00:09:32;;;;;;;4.75;3.80;;;;;;;;;;5073877;28;20489;-68
2021/07/10 00:11:58;;;;;;;6.85;4.20;;;;;;;;;;5074170;28;20060;-68
2021/07/10 00:14:24;;;;;;;7.72;4.30;;;;;;;;;;5073807;28;20060;-68
2021/07/10 00:16:51;;;;;;;6.22;4.57;;;;;;;;;;5073955;28;20045;-68
2021/07/10 00:19:17;;;;;;;4.88;3.80;;;;;;;;;;5073879;28;20049;-68
2021/07/10 00:21:45;;;;;;;4.72;3.60;;;;;;;;;;5072692;28;20048;-68
2021/07/10 00:24:12;;;;;;;5.28;3.83;;;;;;;;;;5073490;28;20049;-68
2021/07/10 00:26:38;;;;;;;5.93;4.30;;;;;;;;;;5073505;28;20051;-68
2021/07/10 00:29:05;;;;;;;4.40;3.65;;;;;;;;;;5073441;28;20053;-68
2021/07/10 00:31:31;;;;;;;5.25;3.83;;;;;;;;;;5073506;28;20041;-68
2021/07/10 00:33:58;;;;;;;4.28;3.50;;;;;;;;;;5073564;28;20052;-68
2021/07/10 00:36:24;;;;;;;5.50;3.65;;;;;;;;;;5073671;28;20045;-68
2021/07/10 00:38:53;;;;;;;4.85;3.60;;;;;;;;;;5072939;28;20052;-68
2021/07/10 00:41:19;;;;;;;8.80;4.10;;;;;;;;;;5073140;28;20059;-68
2021/07/10 00:43:48;;;;;;;3.92;3.25;;;;;;;;;;5073441;28;20051;-69
2021/07/10 00:46:17;;;;;;;4.05;3.15;;;;;;;;;;5073242;28;20457;-68
2021/07/10 00:48:43;;;;;;;4.70;3.67;;;;;;;;;;5073452;28;20052;-68
2021/07/10 00:51:10;;;;;;;5.05;3.85;;;;;;;;;;5072933;28;20059;-68
2021/07/10 00:53:36;;;;;;;6.07;4.32;;;;;;;;;;5072979;28;20060;-69
2021/07/10 00:56:05;;;;;;;5.32;3.85;;;;;;;;;;5072870;28;20049;-69
2021/07/10 00:58:33;;;;;;;4.75;3.88;;;;;;;;;;5073060;28;20051;-69
2021/07/10 01:00:59;;;;;;;3.90;3.30;;;;;;;;;;5073014;28;20045;-69
2021/07/10 01:03:26;;;;;;;5.03;3.63;;;;;;;;;;5073166;28;20057;-69
2021/07/10 01:05:53;;;;;;;4.53;3.70;;;;;;;;;;5072914;28;20435;-69
2021/07/10 01:08:19;;;;;;;5.07;3.03;;;;;;;;;;5072527;28;20469;-69
2021/07/10 01:10:46;;;;;;;3.88;3.08;;;;;;;;;;5072628;28;20699;-69
2021/07/10 01:13:14;;;;;;;4.53;2.70;;;;;;;;;;5072859;28;20101;-68
2021/07/10 01:15:40;;;;;;;4.38;3.30;;;;;;;;;;5072710;28;20056;-68
2021/07/10 01:18:07;;;;;;;4.90;2.97;;;;;;;;;;5072334;28;20049;-68
2021/07/10 01:20:33;;;;;;;6.72;3.67;;;;;;;;;;5072509;28;20048;-68
2021/07/10 01:23:01;;;;;;;3.97;2.80;;;;;;;;;;5072706;28;20044;-68
2021/07/10 01:25:28;;;;;;;7.53;3.00;;;;;;;;;;5072964;28;20052;-68
2021/07/10 01:27:55;;;;;;;3.85;2.88;;;;;;;;;;5072626;28;20055;-68
2021/07/10 01:30:22;;;;;;;7.97;3.40;;;;;;;;;;5072546;28;20139;-68
2021/07/10 01:32:50;;;;;;;15.93;3.38;;;;;;;;;;5072726;28;20369;-68
2021/07/10 01:35:18;;;;;;;37.17;5.13;;;;;;;;;;5072806;28;20048;-68
2021/07/10 01:37:44;;;;;;;36.53;4.05;;;;;;;;;;5072011;28;20048;-68
2021/07/10 01:40:14;;;;;;;21.52;3.33;;;;;;;;;;5070062;28;20472;-68
2021/07/10 01:42:41;;;;;;;9.05;3.00;;;;;;;;;;5057766;28;20164;-68
2021/07/10 01:45:08;;;;;;;5.50;3.10;;;;;;;;;;5072305;28;20477;-68
2021/07/10 01:47:35;;;;;;;5.68;2.78;;;;;;;;;;5072313;28;20116;-68
2021/07/10 01:50:01;;;;;;;4.72;2.60;;;;;;;;;;5072222;28;20055;-68
2021/07/10 01:52:27;;;;;;;3.50;2.60;;;;;;;;;;5072463;28;20044;-68
2021/07/10 01:54:54;;;;;;;6.88;3.00;;;;;;;;;;5071920;28;20059;-68
2021/07/10 01:57:22;;;;;;;5.53;3.08;;;;;;;;;;5071859;28;20075;-68
2021/07/10 01:59:48;;;;;;;5.88;3.85;;;;;;;;;;5072045;28;20056;-68
2021/07/10 02:02:16;;;;;;;3.70;2.65;;;;;;;;;;5072218;28;20500;-68
2021/07/10 02:04:46;;;;;;;6.50;3.17;;;;;;;;;;5071612;28;20071;-69
2021/07/10 02:07:13;;;;;;;4.03;2.70;;;;;;;;;;5071410;28;20044;-69
2021/07/10 02:09:39;;;;;;;5.78;3.45;;;;;;;;;;5071670;28;20045;-69
2021/07/10 02:12:06;;;;;;;3.28;2.45;;;;;;;;;;5071894;28;20055;-69
2021/07/10 02:14:34;;;;;;;12.95;4.18;;;;;;;;;;5071657;28;20056;-69
2021/07/10 02:17:01;;;;;;;5.13;2.85;;;;;;;;;;5071653;28;20057;-69
2021/07/10 02:19:27;;;;;;;6.18;3.25;;;;;;;;;;5071965;28;20393;-69
2021/07/10 02:21:54;;;;;;;8.25;3.20;;;;;;;;;;5071542;28;20056;-69
2021/07/10 02:24:20;;;;;;;4.68;3.20;;;;;;;;;;5071889;28;20053;-69
2021/07/10 02:26:47;;;;;;;4.10;2.92;;;;;;;;;;5071777;28;20061;-69
2021/07/10 02:29:14;;;;;;;4.47;3.10;;;;;;;;;;5071702;28;20055;-69
2021/07/10 02:31:41;;;;;;;4.15;2.85;;;;;;;;;;5071465;28;20049;-69
2021/07/10 02:34:08;;;;;;;3.95;2.90;;;;;;;;;;5071910;28;20045;-69
2021/07/10 02:36:35;;;;;;;3.50;2.67;;;;;;;;;;5071149;28;20054;-69
2021/07/10 02:39:01;;;;;;;5.45;3.10;;;;;;;;;;5071463;28;20052;-69
2021/07/10 02:41:28;;;;;;;5.72;3.10;;;;;;;;;;5071689;28;20068;-69
2021/07/10 02:43:54;;;;;;;6.05;3.03;;;;;;;;;;5071840;28;20060;-69
2021/07/10 02:46:20;;;;;;;4.40;3.30;;;;;;;;;;5075536;28;20508;-69
2021/07/10 02:48:50;;;;;;;6.05;2.90;;;;;;;;;;5075613;28;20462;-69
2021/07/10 02:51:16;;;;;;;3.65;2.53;;;;;;;;;;5075382;28;20052;-69
2021/07/10 02:53:43;;;;;;;4.80;2.85;;;;;;;;;;5075502;28;20045;-69
2021/07/10 02:56:10;;;;;;;4.15;2.70;;;;;;;;;;5075297;28;20051;-69
2021/07/10 02:58:36;;;;;;;10.90;3.83;;;;;;;;;;5075368;28;20496;-69
2021/07/10 03:01:03;;;;;;;5.28;3.10;;;;;;;;;;5075186;28;20044;-69
2021/07/10 03:03:29;;;;;;;4.57;2.80;;;;;;;;;;5075214;28;20049;-69
2021/07/10 03:05:57;;;;;;;7.22;4.65;;;;;;;;;;5074776;28;20067;-69
2021/07/10 03:08:23;;;;;;;8.80;4.85;;;;;;;;;;5075169;28;20056;-69
2021/07/10 03:10:50;;;;;;;15.27;4.95;;;;;;;;;;5074971;28;20056;-69
2021/07/10 03:13:16;;;;;;;31.70;5.55;;;;;;;;;;5075004;28;20044;-69
2021/07/10 03:15:44;;;;;;;27.88;4.78;;;;;;;;;;5074819;28;20067;-69
2021/07/10 03:18:10;;;;;;;15.82;4.63;;;;;;;;;;5075155;28;20070;-69
2021/07/10 03:20:38;;;;;;;8.07;3.50;;;;;;;;;;5074896;28;20083;-69
2021/07/10 03:23:06;;;;;;;15.82;4.78;;;;;;;;;;5074885;28;20052;-69
2021/07/10 03:25:33;;;;;;;10.55;4.00;;;;;;;;;;5074748;28;20059;-69
2021/07/10 03:28:00;;;;;;;8.27;3.72;;;;;;;;;;5074549;28;20052;-69
2021/07/10 03:30:27;;;;;;;6.95;3.92;;;;;;;;;;5074754;28;20048;-69
2021/07/10 03:32:54;;;;;;;9.80;4.20;;;;;;;;;;5074945;28;20496;-69
2021/07/10 03:35:21;;;;;;;16.95;4.70;;;;;;;;;;5074610;28;20078;-69
2021/07/10 03:37:49;;;;;;;16.75;4.55;;;;;;;;;;5074554;28;20048;-69
2021/07/10 03:40:22;;;;;;;7.07;3.80;;;;;;;;;;5074769;28;20052;-69
2021/07/10 03:42:49;;;;;;;22.63;5.13;;;;;;;;;;5074569;28;20045;-69
2021/07/10 03:45:17;;;;;;;27.95;4.90;;;;;;;;;;5074593;28;20048;-69
2021/07/10 03:47:43;;;;;;;49.17;6.72;;;;;;;;;;5074687;28;20051;-69
2021/07/10 03:50:14;;;;;;;52.13;6.65;;;;;;;;;;5074492;28;20052;-69
2021/07/10 03:52:41;;;;;;;28.17;5.32;;;;;;;;;;5074489;28;20468;-69
2021/07/10 03:55:11;;;;;;;12.93;4.22;;;;;;;;;;5074056;28;20052;-69
2021/07/10 03:57:39;;;;;;;4.82;3.53;;;;;;;;;;5073221;28;20055;-69
2021/07/10 04:00:08;;;;;;;8.98;3.88;;;;;;;;;;5074377;28;20059;-69
2021/07/10 04:02:35;;;;;;;13.40;4.72;;;;;;;;;;5074196;28;20052;-68
2021/07/10 04:05:01;;;;;;;7.60;4.15;;;;;;;;;;5073914;28;20044;-69
2021/07/10 04:07:30;;;;;;;6.70;3.63;;;;;;;;;;5073570;28;20053;-69
2021/07/10 04:09:57;;;;;;;7.00;4.47;;;;;;;;;;5074403;28;20063;-69
2021/07/10 04:12:23;;;;;;;5.40;3.53;;;;;;;;;;5074407;28;20045;-69
2021/07/10 04:14:51;;;;;;;11.23;4.10;;;;;;;;;;5074083;28;20374;-69
2021/07/10 04:17:17;;;;;;;6.43;3.90;;;;;;;;;;5074035;28;20486;-69
2021/07/10 04:19:46;;;;;;;5.20;3.15;;;;;;;;;;5074056;28;20369;-69
2021/07/10 04:22:12;;;;;;;4.95;3.83;;;;;;;;;;5073586;28;20462;-69
2021/07/10 04:24:39;;;;;;;4.50;3.30;;;;;;;;;;5073926;28;20055;-69
2021/07/10 04:27:06;;;;;;;5.65;3.58;;;;;;;;;;5073991;28;20063;-69
2021/07/10 04:29:32;;;;;;;5.20;3.22;;;;;;;;;;5073722;28;20051;-69
2021/07/10 04:32:00;;;;;;;5.00;3.50;;;;;;;;;;5073907;28;20055;-69
2021/07/10 04:34:26;;;;;;;4.97;3.35;;;;;;;;;;5073425;28;20044;-69
2021/07/10 04:36:53;;;;;;;4.93;3.42;;;;;;;;;;5073247;28;20052;-69
2021/07/10 04:39:19;;;;;;;4.05;3.10;;;;;;;;;;5073718;28;20480;-69
2021/07/10 04:41:46;;;;;;;5.30;3.40;;;;;;;;;;5073615;28;20461;-69
2021/07/10 04:44:12;;;;;;;5.13;3.60;;;;;;;;;;5073274;28;20059;-69
2021/07/10 04:46:39;;;;;;;9.93;5.63;;;;;;;;;;5073766;28;20507;-69
2021/07/10 04:49:07;;;;;;;6.55;4.40;;;;;;;;;;5073272;28;20060;-69
2021/07/10 04:51:33;;;;;;;6.32;4.13;;;;;;;;;;5073457;28;20048;-69
2021/07/10 04:54:00;;;;;;;4.57;3.60;;;;;;;;;;5073152;28;20052;-68
2021/07/10 04:56:26;;;;;;;5.72;3.47;;;;;;;;;;5073332;28;20052;-68
2021/07/10 04:58:52;;;;;;;4.50;3.30;;;;;;;;;;5073031;28;20044;-69
2021/07/10 05:01:19;;;;;;;5.70;2.92;;;;;;;;;;5073232;28;20040;-68
2021/07/10 05:03:45;;;;;;;7.32;3.38;;;;;;;;;;5073161;28;20067;-68
2021/07/10 05:06:13;;;;;;;4.68;3.00;;;;;;;;;;5072808;28;20052;-69
2021/07/10 05:08:40;;;;;;;5.25;3.20;;;;;;;;;;5072657;28;20055;-69
2021/07/10 05:11:06;;;;;;;4.60;3.40;;;;;;;;;;5073082;28;20048;-69
2021/07/10 05:13:33;;;;;;;6.63;3.20;;;;;;;;;;5073015;28;20052;-68
2021/07/10 05:15:59;;;;;;;4.93;3.67;;;;;;;;;;5072798;28;20056;-69
2021/07/10 05:18:26;;;;;;;5.70;3.60;;;;;;;;;;5072557;28;20405;-69
2021/07/10 05:20:52;;;;;;;5.35;3.45;;;;;;;;;;5072802;28;20045;-68
2021/07/10 05:23:20;;;;;;;4.93;3.53;;;;;;;;;;5072771;28;20051;-69
2021/07/10 05:25:47;;;;;;;4.38;3.45;;;;;;;;;;5072329;28;20049;-69
2021/07/10 05:28:13;;;;;;;5.07;4.00;;;;;;;;;;5072534;28;20477;-69
2021/07/10 05:30:40;;;;;;;7.00;4.82;;;;;;;;;;5072531;28;20373;-69
2021/07/10 05:33:06;;;;;;;5.65;4.53;;;;;;;;;;5072066;28;20497;-69
2021/07/10 05:35:33;;;;;;;6.20;4.35;;;;;;;;;;5072676;28;20044;-69
2021/07/10 05:38:00;;;;;;;5.60;4.20;;;;;;;;;;5072323;28;20055;-69
2021/07/10 05:40:28;;;;;;;7.80;4.60;;;;;;;;;;5072435;28;20399;-69
2021/07/10 05:42:54;;;;;;;6.38;4.85;;;;;;;;;;5072145;28;20047;-69
2021/07/10 05:45:21;;;;;;;6.93;4.28;;;;;;;;;;5072685;28;20052;-69
2021/07/10 05:47:47;;;;;;;7.95;5.07;;;;;;;;;;5072129;28;20048;-69
2021/07/10 05:50:14;;;;;;;6.00;4.20;;;;;;;;;;5072038;28;20056;-70
2021/07/10 05:52:41;;;;;;;6.40;5.05;;;;;;;;;;5072202;28;20044;-69
2021/07/10 05:55:08;;;;;;;11.32;5.78;;;;;;;;;;5071857;28;20040;-69
2021/07/10 05:57:36;;;;;;;6.78;5.82;;;;;;;;;;5072049;28;20054;-69
2021/07/10 06:00:06;;;;;;;12.35;6.72;;;;;;;;;;5072070;28;20059;-69
2021/07/10 06:02:32;;;;;;;11.00;6.53;;;;;;;;;;5071727;28;20053;-69
2021/07/10 06:04:59;;;;;;;6.65;5.60;;;;;;;;;;5072088;28;20477;-69
2021/07/10 06:07:25;;;;;;;7.22;6.05;;;;;;;;;;5071598;28;20404;-69
2021/07/10 06:09:52;;;;;;;7.78;6.70;;;;;;;;;;5071881;28;20044;-69
2021/07/10 06:12:18;;;;;;;7.72;5.90;;;;;;;;;;5071892;28;20048;-69
2021/07/10 06:14:46;;;;;;;8.80;6.85;;;;;;;;;;5071726;28;20057;-69
2021/07/10 06:17:13;;;;;;;7.68;6.10;;;;;;;;;;5071770;28;20051;-68
2021/07/10 06:19:39;;;;;;;9.45;6.38;;;;;;;;;;5071050;28;20055;-69
2021/07/10 06:22:06;;;;;;;9.68;7.68;;;;;;;;;;5071570;28;20055;-69
2021/07/10 06:24:33;;;;;;;8.57;7.22;;;;;;;;;;5071778;28;20473;-69
2021/07/10 06:26:59;;;;;;;9.02;6.88;;;;;;;;;;5071698;28;20048;-69
2021/07/10 06:29:26;;;;;;;11.15;7.50;;;;;;;;;;5071927;28;20496;-69
2021/07/10 06:31:53;;;;;;;10.00;7.57;;;;;;;;;;5071946;28;20063;-69
2021/07/10 06:34:21;;;;;;;9.75;7.85;;;;;;;;;;5071607;28;20048;-68
2021/07/10 06:36:47;;;;;;;9.70;7.68;;;;;;;;;;5071364;28;20052;-68
2021/07/10 06:39:13;;;;;;;11.63;8.40;;;;;;;;;;5071470;28;20055;-69
2021/07/10 06:41:40;;;;;;;9.10;7.45;;;;;;;;;;5071581;28;20049;-68
2021/07/10 06:44:06;;;;;;;10.13;7.97;;;;;;;;;;5071579;28;20045;-68
2021/07/10 06:46:33;;;;;;;9.13;6.90;;;;;;;;;;5071353;28;20049;-67
2021/07/10 06:49:01;;;;;;;9.65;7.80;;;;;;;;;;5071457;28;20055;-67
2021/07/10 06:51:27;;;;;;;7.70;5.75;;;;;;;;;;5071285;28;20045;-67
2021/07/10 06:53:54;;;;;;;9.32;6.70;;;;;;;;;;5071164;28;20040;-67
2021/07/10 06:56:20;;;;;;;9.68;6.07;;;;;;;;;;5071450;28;20068;-67
2021/07/10 06:58:47;;;;;;;9.43;6.43;;;;;;;;;;5071436;28;20483;-67
2021/07/10 07:01:13;;;;;;;9.20;6.88;;;;;;;;;;5071438;28;20138;-67
2021/07/10 07:03:40;;;;;;;8.98;5.95;;;;;;;;;;5071211;28;20037;-69
2021/07/10 07:06:08;;;;;;;7.90;6.45;;;;;;;;;;5071276;28;20048;-69
2021/07/10 07:08:34;;;;;;;9.57;6.90;;;;;;;;;;5071424;28;20048;-69
2021/07/10 07:11:01;;;;;;;7.63;5.72;;;;;;;;;;5071309;28;20052;-67
2021/07/10 07:13:27;;;;;;;6.32;5.50;;;;;;;;;;5071069;28;20041;-67
2021/07/10 07:15:53;;;;;;;9.18;6.30;;;;;;;;;;5071162;28;20053;-68
2021/07/10 07:18:20;;;;;;;5.82;4.97;;;;;;;;;;5071366;28;20495;-67
2021/07/10 07:20:46;;;;;;;8.27;5.78;;;;;;;;;;5071580;28;20489;-68
2021/07/10 07:23:14;;;;;;;7.07;5.30;;;;;;;;;;5070744;28;20048;-67
2021/07/10 07:25:41;;;;;;;7.40;5.40;;;;;;;;;;5070236;28;20052;-67
2021/07/10 07:28:07;;;;;;;6.38;4.97;;;;;;;;;;5070680;28;20045;-69
2021/07/10 07:30:34;;;;;;;6.82;5.38;;;;;;;;;;5072022;28;20044;-67
2021/07/10 07:33:01;;;;;;;8.15;5.85;;;;;;;;;;5074940;28;20048;-68
2021/07/10 07:35:27;;;;;;;7.20;5.95;;;;;;;;;;5074633;28;20059;-68
2021/07/10 07:37:54;;;;;;;7.10;5.60;;;;;;;;;;5074928;28;20048;-70
2021/07/10 07:40:22;;;;;;;6.25;5.13;;;;;;;;;;5073904;28;20052;-68
2021/07/10 07:42:48;;;;;;;6.72;6.03;;;;;;;;;;5073374;28;20408;-68
2021/07/10 07:45:17;;;;;;;6.65;5.30;;;;;;;;;;5072458;28;20056;-68
2021/07/10 07:47:43;;;;;;;6.40;5.15;;;;;;;;;;5074173;28;20485;-68
2021/07/10 07:50:12;;;;;;;7.25;5.38;;;;;;;;;;5073861;28;20044;-68
2021/07/10 07:52:39;;;;;;;5.43;4.68;;;;;;;;;;5073702;28;20056;-68
2021/07/10 07:55:07;;;;;;;5.68;4.88;;;;;;;;;;5073296;28;20044;-68
2021/07/10 07:57:35;;;;;;;5.95;5.00;;;;;;;;;;5073586;28;20127;-70
2021/07/10 08:00:01;;;;;;;8.40;5.68;;;;;;;;;;5073819;28;20052;-69
2021/07/10 08:02:28;;;;;;;6.30;5.13;;;;;;;;;;5073593;28;20055;-70
2021/07/10 08:04:54;;;;;;;6.15;4.75;;;;;;;;;;5073669;28;20055;-69
2021/07/10 08:07:21;;;;;;;8.32;5.45;;;;;;;;;;5074196;28;20048;-69
2021/07/10 08:09:47;;;;;;;7.60;5.63;;;;;;;;;;5074413;28;20048;-69
2021/07/10 08:12:14;;;;;;;6.80;4.93;;;;;;;;;;5072813;28;20042;-69
2021/07/10 08:14:42;;;;;;;6.45;4.57;;;;;;;;;;5070433;28;20404;-69
2021/07/10 08:17:09;;;;;;;5.45;4.88;;;;;;;;;;5073456;28;20056;-69
2021/07/10 08:19:35;;;;;;;6.18;4.90;;;;;;;;;;5073578;28;20060;-69
2021/07/10 08:22:02;;;;;;;13.82;5.20;;;;;;;;;;5073467;28;20044;-69
2021/07/10 08:24:28;;;;;;;6.85;4.90;;;;;;;;;;5073883;28;20382;-69
2021/07/10 08:26:55;;;;;;;5.70;4.50;;;;;;;;;;5073838;28;20048;-69
2021/07/10 08:29:21;;;;;;;7.28;5.13;;;;;;;;;;5073740;28;20048;-69
2021/07/10 08:31:49;;;;;;;5.18;4.38;;;;;;;;;;5073064;28;21522;-69
2021/07/10 08:34:16;;;;;;;6.53;4.53;;;;;;;;;;5073070;28;20045;-69
2021/07/10 08:36:42;;;;;;;5.13;4.50;;;;;;;;;;5073207;28;20055;-69
2021/07/10 08:39:09;;;;;;;5.05;4.35;;;;;;;;;;5073483;28;20083;-69
2021/07/10 08:41:36;;;;;;;6.13;4.78;;;;;;;;;;5072638;28;20044;-69
2021/07/10 08:44:02;;;;;;;4.93;4.05;;;;;;;;;;5072401;28;20047;-69
2021/07/10 08:46:29;;;;;;;6.10;4.80;;;;;;;;;;5072870;28;20056;-69
2021/07/10 08:48:57;;;;;;;4.82;4.25;;;;;;;;;;5072844;28;20051;-70
2021/07/10 08:51:23;;;;;;;5.80;4.15;;;;;;;;;;5072247;28;20161;-70
2021/07/10 08:53:50;;;;;;;6.78;4.80;;;;;;;;;;5072880;28;20053;-71
2021/07/10 08:56:16;;;;;;;5.15;3.85;;;;;;;;;;5072984;28;20071;-69
2021/07/10 08:58:43;;;;;;;10.27;5.30;;;;;;;;;;5072644;28;20667;-67
2021/07/10 09:01:10;;;;;;;7.05;4.95;;;;;;;;;;5072574;28;20052;-69
2021/07/10 09:03:37;;;;;;;6.22;4.53;;;;;;;;;;5072373;28;20044;-69
2021/07/10 09:06:05;;;;;;;6.78;4.63;;;;;;;;;;5072519;28;20048;-69
2021/07/10 09:08:32;;;;;;;7.25;4.90;;;;;;;;;;5073028;28;20534;-69
2021/07/10 09:11:00;;;;;;;5.93;3.90;;;;;;;;;;5071469;28;20047;-69
2021/07/10 09:13:35;;;;;;;6.53;5.22;;;;;;;;;;5072578;28;20044;-69
2021/07/10 09:16:07;;;;;;;6.00;4.63;;;;;;;;;;5071425;28;20052;-69
2021/07/10 09:18:53;;;;;;;5.88;4.95;;;;;;;;;;5056748;28;20050;-69
2021/07/10 09:21:37;;;;;;;6.47;4.60;;;;;;;;;;5072745;28;20514;-69
2021/07/10 09:24:06;;;;;;;6.43;5.00;;;;;;;;;;5072293;28;20051;-69
2021/07/10 09:26:33;;;;;;;5.93;4.70;;;;;;;;;;5064311;28;20056;-69
2021/07/10 09:29:07;;;;;;;5.05;4.32;;;;;;;;;;5071062;28;20141;-69
2021/07/10 09:31:36;;;;;;;5.57;4.50;;;;;;;;;;5070027;28;20059;-69
2021/07/10 09:34:07;;;;;;;7.15;5.18;;;;;;;;;;5069380;28;21661;-69
2021/07/10 09:36:35;;;;;;;7.38;5.03;;;;;;;;;;5069742;28;20051;-69
2021/07/10 09:39:03;;;;;;;6.88;4.93;;;;;;;;;;5069181;28;20048;-69
2021/07/10 09:41:31;;;;;;;7.00;5.13;;;;;;;;;;5071290;28;20141;-69
2021/07/10 09:44:07;;;;;;;6.28;4.80;;;;;;;;;;5071101;28;20047;-69
2021/07/10 09:46:33;;;;;;;5.28;4.03;;;;;;;;;;5072134;28;20392;-69
2021/07/10 09:49:17;;;;;;;7.22;4.80;;;;;;;;;;5072263;28;20079;-69
2021/07/10 09:51:46;;;;;;;5.50;4.32;;;;;;;;;;5072082;28;20056;-69
2021/07/10 09:54:12;;;;;;;6.63;4.88;;;;;;;;;;5071266;28;20553;-69
2021/07/10 09:56:43;;;;;;;6.88;4.57;;;;;;;;;;5071702;28;20044;-69
2021/07/10 09:59:18;;;;;;;4.82;4.18;;;;;;;;;;5071564;28;20432;-69
2021/07/10 10:01:45;;;;;;;7.30;4.28;;;;;;;;;;5070612;28;20044;-69
2021/07/10 10:04:23;;;;;;;10.70;5.28;;;;;;;;;;5071413;28;20529;-69
2021/07/10 10:06:51;;;;;;;5.43;4.15;;;;;;;;;;5071775;28;20052;-68
2021/07/10 10:09:19;;;;;;;5.38;4.28;;;;;;;;;;5072195;28;20467;-68
2021/07/10 10:11:59;;;;;;;5.88;4.25;;;;;;;;;;5071557;28;20045;-69
2021/07/10 10:14:27;;;;;;;6.32;3.63;;;;;;;;;;5071629;28;20485;-69
2021/07/10 10:16:54;;;;;;;4.93;3.40;;;;;;;;;;5071866;28;20048;-69
2021/07/10 10:19:23;;;;;;;3.53;2.92;;;;;;;;;;5071777;28;20062;-69
2021/07/10 10:21:52;;;;;;;3.53;2.95;;;;;;;;;;5071412;28;20053;-69
2021/07/10 10:24:19;;;;;;;3.67;3.00;;;;;;;;;;5071940;28;20041;-69
2021/07/10 10:26:46;;;;;;;5.47;3.15;;;;;;;;;;5071762;28;20048;-70
2021/07/10 10:29:15;;;;;;;4.13;3.33;;;;;;;;;;5071979;28;20049;-70
2021/07/10 10:31:43;;;;;;;3.90;3.42;;;;;;;;;;5071453;28;20060;-68
2021/07/10 10:34:10;;;;;;;4.50;3.95;;;;;;;;;;5071528;28;20052;-68
2021/07/10 10:36:38;;;;;;;4.07;3.10;;;;;;;;;;5071644;28;20048;-68
2021/07/10 10:39:09;;;;;;;4.22;2.80;;;;;;;;;;5071546;28;20068;-69
2021/07/10 10:41:38;;;;;;;5.40;3.17;;;;;;;;;;5070485;28;20055;-68
2021/07/10 10:44:05;;;;;;;4.60;2.40;;;;;;;;;;5071610;28;20044;-68
2021/07/10 10:46:43;;;;;;;3.08;2.20;;;;;;;;;;5071561;28;20064;-69
2021/07/10 10:49:51;;;;;;;4.82;2.53;;;;;;;;;;5071316;28;20055;-69
2021/07/10 10:52:26;;;;;;;3.00;2.40;;;;;;;;;;5064301;28;20044;-69
2021/07/10 10:54:55;;;;;;;5.25;2.80;;;;;;;;;;5070781;28;20041;-69
2021/07/10 10:57:32;;;;;;;4.32;2.90;;;;;;;;;;5071494;28;20059;-69
2021/07/10 10:59:59;;;;;;;4.00;2.72;;;;;;;;;;5057252;28;20037;-69
2021/07/10 11:02:51;;;;;;;4.57;2.47;;;;;;;;;;5061958;28;20057;-69
2021/07/10 11:05:34;;;;;;;3.75;2.65;;;;;;;;;;5071574;28;20048;-69
2021/07/10 11:08:36;;;;;;;3.58;2.50;;;;;;;;;;5075257;28;20067;-69
2021/07/10 11:11:39;;;;;;;4.00;2.80;;;;;;;;;;5055511;28;20048;-69
2021/07/10 11:14:15;;;;;;;4.10;2.70;;;;;;;;;;5056270;28;20140;-69
2021/07/10 11:17:09;;;;;;;4.80;2.95;;;;;;;;;;5075156;28;20409;-69
2021/07/10 11:19:50;;;;;;;5.75;2.67;;;;;;;;;;5038764;28;20052;-69
2021/07/10 11:22:56;;;;;;;5.22;2.97;;;;;;;;;;5074839;28;20058;-68
2021/07/10 11:25:55;;;;;;;3.08;2.38;;;;;;;;;;5075227;28;20044;-69
2021/07/10 11:28:23;;;;;;;4.30;2.65;;;;;;;;;;5074920;28;20056;-68
2021/07/10 11:30:53;;;;;;;4.50;2.50;;;;;;;;;;5074754;28;20048;-69
2021/07/10 11:33:53;;;;;;;6.32;2.60;;;;;;;;;;5074873;28;20462;-69
2021/07/10 11:36:40;;;;;;;3.30;2.15;;;;;;;;;;5074893;28;20049;-69
2021/07/10 11:39:35;;;;;;;3.58;2.53;;;;;;;;;;5054796;28;20155;-69
2021/07/10 11:42:31;;;;;;;5.30;3.83;;;;;;;;;;5054311;28;20052;-69
2021/07/10 11:45:04;;;;;;;4.90;4.37;;;;;;;;;;5064496;28;20858;-69
2021/07/10 11:47:32;;;;;;;5.03;3.15;;;;;;;;;;5072761;28;20151;-68
2021/07/10 11:49:59;;;;;;;4.65;3.03;;;;;;;;;;5073392;28;20073;-68
2021/07/10 11:52:25;;;;;;;6.05;3.63;;;;;;;;;;5073145;28;20048;-68
2021/07/10 11:54:54;;;;;;;4.20;3.25;;;;;;;;;;5072454;28;20052;-69
2021/07/10 11:57:22;;;;;;;4.30;2.90;;;;;;;;;;5073237;28;20053;-69
2021/07/10 11:59:49;;;;;;;4.72;2.65;;;;;;;;;;5072480;28;20048;-68
2021/07/10 12:02:16;;;;;;;4.32;2.58;;;;;;;;;;5072798;28;20044;-68
2021/07/10 12:04:59;;;;;;;4.07;2.88;;;;;;;;;;5072449;28;20044;-68
2021/07/10 12:07:26;;;;;;;3.47;2.40;;;;;;;;;;5072903;28;20052;-68
2021/07/10 12:09:53;;;;;;;3.38;2.88;;;;;;;;;;5072003;28;20044;-68
2021/07/10 12:12:20;;;;;;;4.15;2.70;;;;;;;;;;5072323;28;20052;-68
2021/07/10 12:14:50;;;;;;;3.70;3.10;;;;;;;;;;5072891;28;20051;-68
2021/07/10 12:17:17;;;;;;;3.67;2.80;;;;;;;;;;5072778;28;20048;-68
2021/07/10 12:19:43;;;;;;;3.22;2.47;;;;;;;;;;5073942;28;20133;-68
2021/07/10 12:22:11;;;;;;;4.32;2.75;;;;;;;;;;5073790;28;20489;-68
2021/07/10 12:24:38;;;;;;;4.85;2.47;;;;;;;;;;5074003;28;20045;-69
2021/07/10 12:27:09;;;;;;;3.03;2.70;;;;;;;;;;5074014;28;20044;-68
2021/07/10 12:29:36;;;;;;;3.83;2.67;;;;;;;;;;5072478;28;20397;-69
2021/07/10 12:32:03;;;;;;;5.35;2.40;;;;;;;;;;5073797;28;20139;-68
2021/07/10 12:34:29;;;;;;;3.97;2.90;;;;;;;;;;5073578;28;20127;-68
2021/07/10 12:36:59;;;;;;;3.45;2.67;;;;;;;;;;5073425;28;20059;-68
2021/07/10 12:39:29;;;;;;;5.13;4.07;;;;;;;;;;5073312;28;20056;-68
2021/07/10 12:41:56;;;;;;;4.15;2.30;;;;;;;;;;5073731;28;20543;-68
2021/07/10 12:44:25;;;;;;;3.45;2.35;;;;;;;;;;5073456;28;20048;-68
2021/07/10 12:47:04;;;;;;;3.30;2.30;;;;;;;;;;5073585;28;20053;-68
2021/07/10 12:49:33;;;;;;;3.05;1.90;;;;;;;;;;5073365;28;20125;-68
2021/07/10 12:52:00;;;;;;;3.67;2.20;;;;;;;;;;5072983;28;20048;-68
2021/07/10 12:54:40;;;;;;;2.40;1.95;;;;;;;;;;5073536;28;20570;-68
2021/07/10 12:57:28;;;;;;;2.83;2.00;;;;;;;;;;5073392;28;20083;-68
2021/07/10 12:59:58;;;;;;;3.97;2.38;;;;;;;;;;5070009;28;20474;-68
2021/07/10 13:02:27;;;;;;;5.85;2.50;;;;;;;;;;5073286;28;20595;-68
2021/07/10 13:04:54;;;;;;;3.00;1.90;;;;;;;;;;5072929;28;20053;-69
2021/07/10 13:07:25;;;;;;;3.13;1.95;;;;;;;;;;5072987;28;20056;-69
2021/07/10 13:09:53;;;;;;;3.50;2.40;;;;;;;;;;5073215;28;20051;-68
2021/07/10 13:12:44;;;;;;;2.97;1.90;;;;;;;;;;5073053;28;20044;-68
2021/07/10 13:15:12;;;;;;;3.30;2.10;;;;;;;;;;5072510;28;20055;-68
2021/07/10 13:17:38;;;;;;;2.30;1.90;;;;;;;;;;5072864;28;20496;-68
2021/07/10 13:20:28;;;;;;;2.60;1.80;;;;;;;;;;5072987;28;20059;-68
2021/07/10 13:22:56;;;;;;;4.05;2.40;;;;;;;;;;5072319;28;20044;-68
2021/07/10 13:25:32;;;;;;;2.92;2.20;;;;;;;;;;5072456;28;20488;-68
2021/07/10 13:27:58;;;;;;;2.80;2.08;;;;;;;;;;5072429;28;20056;-68
2021/07/10 13:30:25;;;;;;;2.78;2.05;;;;;;;;;;5072430;28;20045;-68
2021/07/10 13:32:55;;;;;;;3.25;2.00;;;;;;;;;;5072581;28;20057;-68
2021/07/10 13:35:24;;;;;;;3.10;2.03;;;;;;;;;;5072445;28;20505;-68
2021/07/10 13:37:50;;;;;;;3.13;2.03;;;;;;;;;;5072322;28;20053;-68
2021/07/10 13:40:17;;;;;;;4.50;2.05;;;;;;;;;;5072362;28;20413;-68
2021/07/10 13:42:55;;;;;;;3.40;2.10;;;;;;;;;;5072307;28;20680;-68
2021/07/10 13:45:22;;;;;;;3.13;2.00;;;;;;;;;;5072327;28;20052;-68
2021/07/10 13:47:49;;;;;;;3.10;2.00;;;;;;;;;;5072424;28;20389;-68
2021/07/10 13:50:16;;;;;;;3.78;1.80;;;;;;;;;;5072459;28;20501;-68
2021/07/10 13:52:42;;;;;;;2.30;1.83;;;;;;;;;;5072024;28;20052;-68
2021/07/10 13:55:11;;;;;;;4.15;1.80;;;;;;;;;;5071820;28;20056;-68
2021/07/10 13:57:40;;;;;;;2.03;1.60;;;;;;;;;;5071739;28;20053;-68
2021/07/10 14:00:11;;;;;;;3.10;1.90;;;;;;;;;;5072476;28;20064;-68
2021/07/10 14:02:40;;;;;;;2.47;1.85;;;;;;;;;;5071581;28;20056;-68
2021/07/10 14:05:10;;;;;;;2.85;2.20;;;;;;;;;;5072173;28;20377;-68
2021/07/10 14:07:39;;;;;;;2.88;2.17;;;;;;;;;;5071905;28;20049;-69
2021/07/10 14:10:08;;;;;;;4.40;2.10;;;;;;;;;;5072064;28;20056;-68
2021/07/10 14:12:34;;;;;;;3.28;2.15;;;;;;;;;;5071869;28;20078;-68
2021/07/10 14:15:01;;;;;;;3.78;1.90;;;;;;;;;;5072042;28;20400;-68
2021/07/10 14:17:29;;;;;;;1.80;1.52;;;;;;;;;;5072061;28;20048;-68
2021/07/10 14:19:55;;;;;;;2.50;1.60;;;;;;;;;;5071959;28;20063;-69
2021/07/10 14:22:21;;;;;;;2.17;1.83;;;;;;;;;;5071259;28;20059;-68
2021/07/10 14:24:48;;;;;;;3.22;2.20;;;;;;;;;;5071616;28;20052;-69
2021/07/10 14:27:14;;;;;;;3.90;2.00;;;;;;;;;;5071918;28;20055;-68
2021/07/10 14:29:41;;;;;;;3.40;2.47;;;;;;;;;;5071548;28;20052;-68
2021/07/10 14:32:08;;;;;;;4.13;1.85;;;;;;;;;;5071540;28;20052;-68
2021/07/10 14:34:36;;;;;;;3.17;2.00;;;;;;;;;;5071853;28;20051;-68
2021/07/10 14:37:03;;;;;;;3.47;1.90;;;;;;;;;;5071758;28;20067;-69
2021/07/10 14:39:29;;;;;;;2.63;1.80;;;;;;;;;;5071914;28;20059;-69
2021/07/10 14:41:56;;;;;;;3.55;2.08;;;;;;;;;;5074755;28;20063;-69
2021/07/10 14:44:23;;;;;;;2.92;1.70;;;;;;;;;;5075750;28;20537;-69
2021/07/10 14:46:49;;;;;;;3.03;2.08;;;;;;;;;;5075999;28;20048;-69
2021/07/10 14:49:16;;;;;;;2.65;1.85;;;;;;;;;;5075612;28;20056;-69
2021/07/10 14:51:43;;;;;;;2.35;1.77;;;;;;;;;;5075563;28;20048;-69